Millinocket, Maine
Current Conditions -  °F | °C
As of 2:53 AM on Sunday 21 Dec 2014 (Local Time) from KMLT Reporting Station
Overcast Overcast  
Wind Chill: -6°   Ceiling: 2100
Heat Index: -6°   Visibility: 10mi
Dew Point: -8°   Wind: 3mph
Humidity: 88%   Direction: 100°E
Pressure: 30.37"   Gusts: NA
Location:  45.66°N, 68.71°W
Report Text: KMLT 210753Z AUTO 10003KT 10SM OVC021 M06/M08 A3037 RMK AO2 SLP295 T10611078
Loading
Personal Weather Stations






























Interactive Weather Map New forecast layout! Learn more

10-Day Weather Forecast

Advertisements
Track Severe Weather on mobile